This is the latest recevied weather packets stored in our database for station/object IZ1UQG-2. If no packets are shown the sender has not sent any weather packets the latest 10 day(s).
| Time | Temp. | Humidity | Pressure | Rain* | Wind** | Luminosity | Snow |
|---|---|---|---|---|---|---|---|
| 1777464064 | 19.44° C | 65% | 1014.8 hPa | 0 mm | - | 508 W/m² | - |
| 1777463884 | 18.89° C | 65% | 1014.8 hPa | 0 mm | - | 1016 W/m² | - |
| 1777463284 | 18.89° C | 64% | 1015 hPa | 0 mm | - | 522 W/m² | - |
| 1777462923 | 19.44° C | 64% | 1015 hPa | 0 mm | - | 571 W/m² | - |
| 1777462624 | 19.44° C | 65% | 1015 hPa | 0 mm | - | 1000 W/m² | - |
| 1777462384 | 18.89° C | 67% | 1015.1 hPa | 0 mm | - | 965 W/m² | - |
| 1777461784 | 17.78° C | 75% | 1015.3 hPa | 0 mm | - | 983 W/m² | - |
| 1777460404 | 17.78° C | 76% | 1015.7 hPa | 0 mm | - | 438 W/m² | - |
| 1777460284 | 17.22° C | 77% | 1015.6 hPa | 0 mm | - | 436 W/m² | - |
| 1777458671 | 16.67° C | 77% | 1015.9 hPa | 0 mm | - | 290 W/m² | - |
| 1777458184 | 16.67° C | 79% | 1015.9 hPa | 0 mm | - | 280 W/m² | - |
| 1777458124 | 16.67° C | 79% | 1016 hPa | 0 mm | - | 278 W/m² | - |
| 1777457944 | 16.67° C | 78% | 1015.9 hPa | 0 mm | - | 283 W/m² | - |
| 1777457884 | 16.67° C | 78% | 1015.9 hPa | 0 mm | - | 288 W/m² | - |
| 1777457824 | 16.67° C | 79% | 1016 hPa | 0 mm | - | 295 W/m² | - |
| 1777456804 | 16.11° C | 80% | 1016.1 hPa | 0 mm | - | 322 W/m² | - |
| 1777456505 | 16.11° C | 81% | 1016.1 hPa | 0 mm | - | 274 W/m² | - |
| 1777456206 | 16.11° C | 81% | 1016.2 hPa | 0 mm | - | 265 W/m² | - |
| 1777456028 | 15.56° C | 80% | 1016.2 hPa | 0 mm | - | 255 W/m² | - |
| 1777455544 | 15.56° C | 81% | 1016.1 hPa | 0 mm | - | 239 W/m² | - |
| 1777455364 | 15.56° C | 81% | 1016.2 hPa | 0 mm | - | 221 W/m² | - |
| 1777454705 | 15.56° C | 82% | 1016.2 hPa | 0 mm | - | 190 W/m² | - |
| 1777454464 | 15.56° C | 83% | 1016.2 hPa | 0 mm | - | 176 W/m² | - |
| 1777453204 | 15° C | 85% | 1016.1 hPa | 0 mm | - | 134 W/m² | - |
| 1777452784 | 15° C | 85% | 1016.1 hPa | 0 mm | - | 121 W/m² | - |
* Rain latest hour (hover to see other rain measurements)
** Current wind speed in m/s (hover to see current wind gust speed)